Palminopolis, Brazil
Current Conditions -  °F | °C
As of 8:00 PM on Wednesday 22 Oct 2014 (Local Time) from SBGO Reporting Station
Thunderstorm Thunderstorm  
Wind Chill: 81°   Ceiling: Unl
Heat Index: 81°   Visibility: 6mi
Dew Point: 59°   Wind: 15mph
Humidity: 48%   Direction: 150°SSE
Pressure: NA   Gusts: NA
Location:  16.8°S, 50.16°W
Report Text: SBGO 222200Z 15013KT 110V200 9999 VCTS FEW045CB FEW045 27/15 Q1016
Loading
Personal Weather Stations






























Interactive Weather Map
Tropical Storm Tracking
New forecast layout! Learn more

10-Day Weather Forecast

Advertisements
Track Severe Weather on mobile